PST: 13:11 MST: 14:11 CST: 15:11 EST: 16:11 LDN: 21:11 UTC: 20:11
User Agent: CCBot/2.0 (https://commoncrawl.org/faq/)
IP Address: 34.239.172.52
Hostname: ec2-34-239-172-52.compute-1.amazonaws.com

METAR:
KBFI 091953Z 32009KT 280V350 10SM CLR 17/02 A3015 RMK AO2 SLP208 T01670022
KBFI 091853Z 28009KT 10SM CLR 15/02 A3016 RMK AO2 SLP212 T01500022
KBFI 091753Z 31007KT 10SM CLR 14/03 A3017 RMK AO2 SLP215 T01390033 10139 20056 57009
KBFI 091653Z VRB03KT 10SM CLR 12/03 A3018 RMK AO2 SLP218 T01170033

TAF:
KBFI 091720Z 0918/1018 VRB03KT P6SM FEW250
FM 091900 33009KT P6SM SCT250
FM 100300 VRB03KT P6SM SCT250

KBFI 091120Z 0912/1012 VRB03KT P6SM FEW250
FM 091700 33009KT P6SM SCT250
FM 100300 VRB03KT P6SM FEW250

KBFI 090605Z 0906/1006 VRB03KT P6SM FEW250
FM 091800 30006KT P6SM SCT250

KBFI 082320Z 0900/0924 32007KT P6SM SCT200
FM 090600 VRB03KT P6SM FEW250
FM 091800 30006KT P6SM SCT250

KBFI 081720Z 0818/0918 VRB05KT P6SM SKC
FM 082000 32006KT P6SM SCT200
FM 090600 VRB03KT P6SM FEW250